createdAt,value
2018-02-26T00:01:11.595Z,84.08
2018-02-26T00:03:39.560Z,84.08
2018-02-26T00:06:07.583Z,84.29
2018-02-26T00:08:35.536Z,84.26
2018-02-26T00:11:03.508Z,84.73
2018-02-26T00:13:31.459Z,84.43
2018-02-26T00:15:59.422Z,83.88
2018-02-26T00:18:28.323Z,84.87
2018-02-26T00:20:56.458Z,85.04
2018-02-26T00:23:24.537Z,85.12
2018-02-26T00:25:52.538Z,84.71
2018-02-26T00:28:20.492Z,85.33
2018-02-26T00:30:48.487Z,85.69
2018-02-26T00:33:16.779Z,85.99
2018-02-26T00:35:44.739Z,85.77
2018-02-26T00:38:13.588Z,85.71
2018-02-26T00:40:41.559Z,85.56
2018-02-26T00:43:09.526Z,86.47
2018-02-26T00:45:37.716Z,86.47
2018-02-26T00:48:05.644Z,85.90
2018-02-26T00:50:33.767Z,85.81
2018-02-26T00:53:01.726Z,85.87
2018-02-26T00:55:29.828Z,86.43
2018-02-26T00:57:57.803Z,86.01
2018-02-26T01:00:25.746Z,85.31
2018-02-26T01:02:53.713Z,84.61
2018-02-26T01:05:21.660Z,84.74
2018-02-26T01:07:49.678Z,84.58
2018-02-26T01:10:17.631Z,84.61
2018-02-26T01:12:45.590Z,84.46
2018-02-26T01:15:13.514Z,84.13
2018-02-26T01:17:41.578Z,84.33
2018-02-26T01:20:09.523Z,84.52
2018-02-26T01:22:37.498Z,85.23
2018-02-26T01:25:05.574Z,84.81
2018-02-26T01:27:33.564Z,85.45
2018-02-26T01:30:01.512Z,86.40
2018-02-26T01:32:30.191Z,86.96
2018-02-26T01:34:58.172Z,87.07
2018-02-26T01:37:26.106Z,87.26
2018-02-26T01:39:54.098Z,87.41
2018-02-26T01:42:22.035Z,87.31
2018-02-26T01:44:50.086Z,87.18
2018-02-26T01:47:18.697Z,87.28
2018-02-26T01:49:46.655Z,87.20
2018-02-26T01:52:14.595Z,87.12
2018-02-26T01:54:42.578Z,86.65
2018-02-26T01:57:10.543Z,86.80
2018-02-26T01:59:38.538Z,86.58
2018-02-26T02:02:06.501Z,86.64
2018-02-26T02:04:34.476Z,86.54
2018-02-26T02:07:02.443Z,86.45
2018-02-26T02:09:30.410Z,86.13
2018-02-26T02:11:58.362Z,85.42
2018-02-26T02:14:26.345Z,84.24
2018-02-26T02:16:54.423Z,83.94
2018-02-26T02:19:22.375Z,82.58
2018-02-26T02:21:50.363Z,82.01
2018-02-26T02:24:18.287Z,81.52
2018-02-26T02:26:46.241Z,81.52
2018-02-26T02:29:14.247Z,80.91
2018-02-26T02:31:42.200Z,80.14
2018-02-26T02:34:10.345Z,79.19
2018-02-26T02:36:38.263Z,78.06
2018-02-26T02:39:06.206Z,77.15
2018-02-26T02:41:34.158Z,76.70
2018-02-26T02:44:02.097Z,76.32
2018-02-26T02:46:30.040Z,75.58
2018-02-26T02:48:58.000Z,76.06
2018-02-26T02:51:25.927Z,75.87
2018-02-26T02:53:53.877Z,75.92
2018-02-26T02:56:21.984Z,75.52
2018-02-26T02:58:49.908Z,74.89
2018-02-26T03:01:17.836Z,74.50
2018-02-26T03:03:45.772Z,74.23
2018-02-26T03:06:13.762Z,73.96
2018-02-26T03:08:41.688Z,73.73
2018-02-26T03:11:09.631Z,73.30
2018-02-26T03:13:37.579Z,72.87
2018-02-26T03:16:05.522Z,71.90
2018-02-26T03:18:33.684Z,71.16
2018-02-26T03:21:01.764Z,71.25
2018-02-26T03:23:29.737Z,71.08
2018-02-26T03:25:57.800Z,71.25
2018-02-26T03:28:25.728Z,70.95
2018-02-26T03:30:53.660Z,69.91
2018-02-26T03:33:21.728Z,70.07
2018-02-26T03:35:49.887Z,69.83
2018-02-26T03:38:17.818Z,69.41
2018-02-26T03:40:45.767Z,68.88
2018-02-26T03:43:13.725Z,67.92
2018-02-26T03:45:41.773Z,68.22
2018-02-26T03:48:09.827Z,68.19
2018-02-26T03:50:37.927Z,67.76
2018-02-26T03:53:05.881Z,67.81
2018-02-26T03:55:33.791Z,67.16
2018-02-26T03:58:01.743Z,66.79
2018-02-26T04:00:29.684Z,66.39
2018-02-26T04:02:57.659Z,66.71
2018-02-26T04:05:25.685Z,65.90
2018-02-26T04:07:53.634Z,65.94
2018-02-26T04:10:21.593Z,65.84
2018-02-26T04:12:49.537Z,65.44
2018-02-26T04:15:17.531Z,66.06
2018-02-26T04:17:45.478Z,65.50
2018-02-26T04:20:13.628Z,65.61
2018-02-26T04:22:41.601Z,65.89
2018-02-26T04:25:09.563Z,66.14
2018-02-26T04:27:37.586Z,65.83
2018-02-26T04:30:05.528Z,65.77
2018-02-26T04:32:33.601Z,65.62
2018-02-26T04:35:01.534Z,65.49
2018-02-26T04:37:29.515Z,65.18
2018-02-26T04:39:57.507Z,65.63
2018-02-26T04:42:25.482Z,65.70
2018-02-26T04:44:54.102Z,65.40
2018-02-26T04:47:22.130Z,65.65
2018-02-26T04:49:50.065Z,65.15
2018-02-26T04:52:19.036Z,65.36
2018-02-26T04:54:47.001Z,76.82
2018-02-26T04:57:14.978Z,75.68
2018-02-26T04:59:42.905Z,70.43
2018-02-26T05:02:11.086Z,68.71
2018-02-26T05:04:39.021Z,65.73
2018-02-26T05:07:07.024Z,66.32
2018-02-26T05:09:34.994Z,66.41
2018-02-26T05:12:02.914Z,67.41
2018-02-26T05:14:30.887Z,67.59
2018-02-26T05:16:58.838Z,67.49
2018-02-26T05:19:26.796Z,67.30
2018-02-26T05:21:54.811Z,68.19
2018-02-26T05:24:22.761Z,69.47
2018-02-26T05:26:50.711Z,74.32
2018-02-26T05:29:18.682Z,80.01
2018-02-26T05:31:46.620Z,81.94
2018-02-26T05:34:14.592Z,82.07
2018-02-26T05:36:42.555Z,82.84
2018-02-26T05:39:10.477Z,83.61
2018-02-26T05:41:38.442Z,83.62
2018-02-26T05:44:06.452Z,83.50
2018-02-26T05:46:34.544Z,83.90
2018-02-26T05:49:02.506Z,83.71
2018-02-26T05:51:31.875Z,83.16
2018-02-26T05:53:59.876Z,83.42
2018-02-26T05:56:27.836Z,83.50
2018-02-26T05:58:57.770Z,83.68
2018-02-26T06:01:27.685Z,83.23
2018-02-26T06:03:57.042Z,83.02
2018-02-26T06:06:25.015Z,83.09
2018-02-26T06:08:53.005Z,83.20
2018-02-26T06:11:20.961Z,83.13
2018-02-26T06:13:49.012Z,83.29
2018-02-26T06:16:16.981Z,83.90
2018-02-26T06:18:44.897Z,84.16
2018-02-26T06:21:12.896Z,84.15
2018-02-26T06:23:40.834Z,83.41
2018-02-26T06:26:08.795Z,83.62
2018-02-26T06:28:36.771Z,95.77
2018-02-26T06:31:04.674Z,94.27
2018-02-26T06:33:32.679Z,88.59
2018-02-26T06:36:00.603Z,87.24
2018-02-26T06:38:28.576Z,85.97
2018-02-26T06:40:56.486Z,85.14
2018-02-26T06:43:24.480Z,87.78
2018-02-26T06:45:52.422Z,87.57
2018-02-26T06:48:20.366Z,85.98
2018-02-26T06:50:48.554Z,85.14
2018-02-26T06:53:16.652Z,83.71
2018-02-26T06:55:44.607Z,84.02
2018-02-26T06:58:12.601Z,82.32
2018-02-26T07:00:40.605Z,81.38
2018-02-26T07:03:08.552Z,81.33
2018-02-26T07:05:36.515Z,80.12
2018-02-26T07:08:04.455Z,80.17
2018-02-26T07:10:32.448Z,79.62
2018-02-26T07:13:00.417Z,79.39
2018-02-26T07:15:28.701Z,78.68
2018-02-26T07:17:56.626Z,77.82
2018-02-26T07:20:25.338Z,77.16
2018-02-26T07:22:53.285Z,76.05
2018-02-26T07:25:21.226Z,74.22
2018-02-26T07:27:49.198Z,74.06
2018-02-26T07:30:17.568Z,74.08
2018-02-26T07:32:45.543Z,73.99
2018-02-26T07:35:13.540Z,73.26
2018-02-26T07:37:41.454Z,72.51
2018-02-26T07:40:09.429Z,72.06
2018-02-26T07:42:37.381Z,72.16
2018-02-26T07:45:05.323Z,71.87
2018-02-26T07:47:37.788Z,72.12
2018-02-26T07:50:05.742Z,72.08
2018-02-26T07:52:33.663Z,71.85
2018-02-26T07:55:01.589Z,72.85
2018-02-26T07:57:29.563Z,71.59
2018-02-26T07:59:58.861Z,71.00
2018-02-26T08:02:26.838Z,70.74
2018-02-26T08:04:55.365Z,71.06
2018-02-26T08:07:23.305Z,71.92
2018-02-26T08:09:51.388Z,72.58
2018-02-26T08:12:19.327Z,73.03
2018-02-26T08:14:47.296Z,74.06
2018-02-26T08:17:15.232Z,73.46
2018-02-26T08:19:43.180Z,73.24
2018-02-26T08:22:11.148Z,72.71
2018-02-26T08:24:39.119Z,72.33
2018-02-26T08:27:07.117Z,73.14
2018-02-26T08:29:35.275Z,72.74
2018-02-26T08:32:04.247Z,72.81
2018-02-26T08:34:32.153Z,73.04
2018-02-26T08:37:00.096Z,72.41
2018-02-26T08:39:28.054Z,72.96
2018-02-26T08:41:56.010Z,72.39
2018-02-26T08:44:23.999Z,72.91
2018-02-26T08:46:51.954Z,72.62
2018-02-26T08:49:19.967Z,71.16
2018-02-26T08:51:47.931Z,70.16
2018-02-26T08:54:15.876Z,69.58
2018-02-26T08:56:43.831Z,68.47
2018-02-26T08:59:11.784Z,68.16
2018-02-26T09:01:39.817Z,67.40
2018-02-26T09:04:08.215Z,68.63
2018-02-26T09:06:36.766Z,68.38
2018-02-26T09:09:04.719Z,68.58
2018-02-26T09:11:32.684Z,67.07
2018-02-26T09:14:00.660Z,69.52
2018-02-26T09:16:28.682Z,69.25
2018-02-26T09:18:56.602Z,69.94
2018-02-26T09:21:24.695Z,75.60
2018-02-26T09:23:52.638Z,73.80
2018-02-26T09:26:20.576Z,67.88
2018-02-26T09:28:48.509Z,69.73
2018-02-26T09:31:16.470Z,64.84
2018-02-26T09:33:44.396Z,67.52
2018-02-26T09:36:12.352Z,64.34
2018-02-26T09:38:40.311Z,60.15
2018-02-26T09:41:08.251Z,58.01
2018-02-26T09:43:36.462Z,57.29
2018-02-26T09:46:04.437Z,56.88
2018-02-26T09:48:32.405Z,56.55
2018-02-26T09:51:00.335Z,57.20
2018-02-26T09:53:28.309Z,55.57
2018-02-26T09:55:56.222Z,55.55
2018-02-26T09:58:24.167Z,53.08
2018-02-26T10:00:52.110Z,53.52
2018-02-26T10:03:21.109Z,52.97
2018-02-26T10:05:49.064Z,54.37
2018-02-26T10:08:17.033Z,54.01
2018-02-26T10:10:44.964Z,55.91
2018-02-26T10:13:12.976Z,57.04
2018-02-26T10:15:40.901Z,57.60
2018-02-26T10:18:08.826Z,59.25
2018-02-26T10:20:36.755Z,64.77
2018-02-26T10:23:04.750Z,66.35
2018-02-26T10:25:32.874Z,61.63
2018-02-26T10:28:00.874Z,62.21
2018-02-26T10:30:28.839Z,62.90
2018-02-26T10:32:56.864Z,59.93
2018-02-26T10:35:24.910Z,60.96
2018-02-26T10:37:52.856Z,60.29
2018-02-26T10:40:20.821Z,60.59
2018-02-26T10:42:48.760Z,60.54
2018-02-26T10:45:16.781Z,64.17
2018-02-26T10:47:44.729Z,63.11
2018-02-26T10:50:12.702Z,64.78
2018-02-26T10:52:40.652Z,61.47
2018-02-26T10:55:08.826Z,58.06
2018-02-26T10:57:36.813Z,57.22
2018-02-26T11:00:04.842Z,57.88
2018-02-26T11:02:32.881Z,56.06
2018-02-26T11:05:00.879Z,64.10
2018-02-26T11:07:28.938Z,73.05
2018-02-26T11:09:56.970Z,78.06
2018-02-26T11:12:25.011Z,76.48
2018-02-26T11:14:53.019Z,76.42
2018-02-26T11:17:21.012Z,74.44
2018-02-26T11:19:49.016Z,74.99
2018-02-26T11:22:17.067Z,72.90
2018-02-26T11:24:45.160Z,69.61
2018-02-26T11:27:13.138Z,66.55
2018-02-26T11:29:41.089Z,64.56
2018-02-26T11:32:09.028Z,63.53
2018-02-26T11:34:36.964Z,61.45
2018-02-26T11:37:04.955Z,59.53
2018-02-26T11:39:33.040Z,58.75
2018-02-26T11:42:00.980Z,56.87
2018-02-26T11:44:28.933Z,57.37
2018-02-26T11:46:56.891Z,55.78
2018-02-26T11:49:24.861Z,53.84
2018-02-26T11:51:52.814Z,50.53
2018-02-26T11:54:21.518Z,46.93
2018-02-26T11:56:49.497Z,44.25
2018-02-26T11:59:17.500Z,43.38
2018-02-26T12:01:45.467Z,42.32
2018-02-26T12:04:13.558Z,42.36
2018-02-26T12:06:42.176Z,39.74
2018-02-26T12:09:10.103Z,38.78
2018-02-26T12:11:38.065Z,36.51
2018-02-26T12:14:06.003Z,37.28
2018-02-26T12:16:34.084Z,36.58
2018-02-26T12:19:02.758Z,36.92
2018-02-26T12:21:30.726Z,35.65
2018-02-26T12:23:58.874Z,36.27
2018-02-26T12:26:26.870Z,36.48
2018-02-26T12:28:54.826Z,36.69
2018-02-26T12:31:22.814Z,37.02
2018-02-26T12:33:50.768Z,37.79
2018-02-26T12:36:18.723Z,37.53
2018-02-26T12:38:46.877Z,39.47
2018-02-26T12:41:14.946Z,39.12
2018-02-26T12:43:42.904Z,41.55
2018-02-26T12:46:10.946Z,42.68
2018-02-26T12:48:38.892Z,41.47
2018-02-26T12:51:06.903Z,52.99
2018-02-26T12:53:34.880Z,43.93
2018-02-26T12:56:02.842Z,42.29
2018-02-26T12:58:30.871Z,42.99
2018-02-26T13:00:59.005Z,43.31
2018-02-26T13:03:26.939Z,45.96
2018-02-26T13:05:55.098Z,46.66
2018-02-26T13:08:23.061Z,46.51
2018-02-26T13:10:51.002Z,48.05
2018-02-26T13:13:18.936Z,48.57
2018-02-26T13:15:47.069Z,50.15
2018-02-26T13:18:14.995Z,51.52
2018-02-26T13:20:43.098Z,51.56
2018-02-26T13:23:11.215Z,53.09
2018-02-26T13:25:39.258Z,54.56
2018-02-26T13:28:07.219Z,53.14
2018-02-26T13:30:35.299Z,51.58
2018-02-26T13:33:03.230Z,53.14
2018-02-26T13:35:31.198Z,53.36
2018-02-26T13:37:59.147Z,52.46
2018-02-26T13:40:27.146Z,52.48
2018-02-26T13:42:55.414Z,52.75
2018-02-26T13:45:23.357Z,51.96
2018-02-26T13:47:51.280Z,52.85
2018-02-26T13:50:19.267Z,51.99
2018-02-26T13:52:47.192Z,51.28
2018-02-26T13:55:15.128Z,52.65
2018-02-26T13:57:43.106Z,52.51
2018-02-26T14:00:11.064Z,53.14
2018-02-26T14:02:39.068Z,54.14
2018-02-26T14:05:07.168Z,55.27
2018-02-26T14:07:35.085Z,56.01
2018-02-26T14:10:03.128Z,56.00
2018-02-26T14:12:31.019Z,55.73
2018-02-26T14:14:58.943Z,54.94
2018-02-26T14:17:26.875Z,54.51
2018-02-26T14:19:54.834Z,54.97
2018-02-26T14:22:22.865Z,54.27
2018-02-26T14:24:51.011Z,54.58
2018-02-26T14:27:18.911Z,54.55
2018-02-26T14:29:46.881Z,55.23
2018-02-26T14:32:14.835Z,54.55
2018-02-26T14:34:42.771Z,55.12
2018-02-26T14:37:10.714Z,55.16
2018-02-26T14:39:38.650Z,55.04
2018-02-26T14:42:06.628Z,55.10
2018-02-26T14:44:34.583Z,56.00
2018-02-26T14:47:02.546Z,54.65
2018-02-26T14:49:30.487Z,55.04
2018-02-26T14:51:58.427Z,54.94
2018-02-26T14:54:26.604Z,54.47
2018-02-26T14:56:54.529Z,53.72
2018-02-26T14:59:22.503Z,53.14
2018-02-26T15:01:50.498Z,53.86
2018-02-26T15:04:18.437Z,55.42
2018-02-26T15:06:46.397Z,55.06
2018-02-26T15:09:14.333Z,55.32
2018-02-26T15:11:42.370Z,55.97
2018-02-26T15:14:10.414Z,54.67
2018-02-26T15:16:38.361Z,54.92
2018-02-26T15:19:06.318Z,55.26
2018-02-26T15:21:34.269Z,54.01
2018-02-26T15:24:02.985Z,54.30
2018-02-26T15:26:30.924Z,55.31
2018-02-26T15:28:58.900Z,56.09
2018-02-26T15:31:26.837Z,56.06
2018-02-26T15:33:54.786Z,55.90
2018-02-26T15:36:22.731Z,56.99
2018-02-26T15:38:50.730Z,57.00
2018-02-26T15:41:20.954Z,55.98
2018-02-26T15:43:48.962Z,57.72
2018-02-26T15:46:16.934Z,58.13
2018-02-26T15:48:44.902Z,57.56
2018-02-26T15:51:12.974Z,57.01
2018-02-26T15:53:40.982Z,55.39
2018-02-26T15:56:09.497Z,54.68
2018-02-26T15:58:37.435Z,53.20
2018-02-26T16:01:05.424Z,52.32
2018-02-26T16:03:33.495Z,52.54
2018-02-26T16:06:01.948Z,51.29
2018-02-26T16:08:29.898Z,51.36
2018-02-26T16:10:58.010Z,50.08
2018-02-26T16:13:25.975Z,50.47
2018-02-26T16:15:53.963Z,52.53
2018-02-26T16:18:21.927Z,54.12
2018-02-26T16:20:49.915Z,57.52
2018-02-26T16:23:18.590Z,57.29
2018-02-26T16:25:46.493Z,54.12
2018-02-26T16:28:14.466Z,53.94
2018-02-26T16:30:42.454Z,54.67
2018-02-26T16:33:10.386Z,54.65
2018-02-26T16:35:38.319Z,57.87
2018-02-26T16:38:06.247Z,55.74
2018-02-26T16:40:34.218Z,56.48
2018-02-26T16:43:02.182Z,54.35
2018-02-26T16:45:30.091Z,55.52
2018-02-26T16:47:58.043Z,55.61
2018-02-26T16:50:25.972Z,56.71
2018-02-26T16:52:54.062Z,57.22
2018-02-26T16:55:22.030Z,58.90
2018-02-26T16:57:50.053Z,59.07
2018-02-26T17:00:17.976Z,58.80
2018-02-26T17:02:45.905Z,60.60
2018-02-26T17:05:13.865Z,60.35
2018-02-26T17:07:41.784Z,59.92
2018-02-26T17:10:09.752Z,59.59
2018-02-26T17:12:37.719Z,59.64
2018-02-26T17:15:05.682Z,60.09
2018-02-26T17:17:33.776Z,60.79
2018-02-26T17:20:01.726Z,62.82
2018-02-26T17:22:29.746Z,62.43
2018-02-26T17:24:57.723Z,62.81
2018-02-26T17:27:25.804Z,63.49
2018-02-26T17:29:53.773Z,63.95
2018-02-26T17:32:21.819Z,69.94
2018-02-26T17:34:49.829Z,66.84
2018-02-26T17:37:17.799Z,67.07
2018-02-26T17:39:45.774Z,70.53
2018-02-26T17:42:13.724Z,67.08
2018-02-26T17:44:41.749Z,65.73
2018-02-26T17:47:09.698Z,67.00
2018-02-26T17:49:37.672Z,67.33
2018-02-26T17:52:05.640Z,66.70
2018-02-26T17:54:33.612Z,67.00
2018-02-26T17:57:01.554Z,67.36
2018-02-26T17:59:29.508Z,67.55
2018-02-26T18:01:57.492Z,67.41
2018-02-26T18:04:25.445Z,70.63
2018-02-26T18:06:53.432Z,68.63
2018-02-26T18:09:21.375Z,68.03
2018-02-26T18:11:49.365Z,67.15
2018-02-26T18:14:17.346Z,66.72
2018-02-26T18:16:45.273Z,77.71
2018-02-26T18:19:13.754Z,76.95
2018-02-26T18:21:41.682Z,72.74
2018-02-26T18:24:09.650Z,70.98
2018-02-26T18:26:37.603Z,71.80
2018-02-26T19:01:05.656Z,77.34
2018-02-26T19:03:33.615Z,78.91
2018-02-26T19:06:01.651Z,79.35
2018-02-26T19:08:29.543Z,78.85
2018-02-26T19:10:58.797Z,78.46
2018-02-26T19:13:26.795Z,79.84
2018-02-26T19:15:54.756Z,80.68
2018-02-26T19:18:23.834Z,79.18
2018-02-26T19:20:51.839Z,78.88
2018-02-26T19:23:19.792Z,79.47
2018-02-26T19:25:47.852Z,80.19
2018-02-26T19:28:15.844Z,80.71
2018-02-26T19:30:43.880Z,79.72
2018-02-26T19:33:11.925Z,79.56
2018-02-26T19:35:39.861Z,80.46
2018-02-26T19:38:07.790Z,78.62
2018-02-26T19:40:36.600Z,77.25
2018-02-26T19:43:04.577Z,76.95
2018-02-26T19:45:32.517Z,77.53
2018-02-26T19:48:00.513Z,78.83
2018-02-26T19:50:28.554Z,79.73
2018-02-26T19:52:56.545Z,79.86
2018-02-26T19:55:24.472Z,81.07
2018-02-26T19:57:52.426Z,79.33
2018-02-26T20:00:20.530Z,78.68
2018-02-26T20:02:48.529Z,78.12
2018-02-26T20:05:16.501Z,78.04
2018-02-26T20:07:44.443Z,77.96
2018-02-26T20:10:12.397Z,77.70
2018-02-26T20:12:40.348Z,78.12
2018-02-26T20:15:08.419Z,78.14
2018-02-26T20:17:36.386Z,77.83
2018-02-26T20:20:04.377Z,78.21
2018-02-26T20:22:32.361Z,78.31
2018-02-26T20:25:00.330Z,78.50
2018-02-26T20:27:28.268Z,78.76
2018-02-26T20:29:56.421Z,78.77
2018-02-26T20:32:24.570Z,79.15
2018-02-26T20:34:52.477Z,79.43
2018-02-26T20:37:20.497Z,79.27
2018-02-26T20:39:48.448Z,79.39
2018-02-26T20:42:16.394Z,79.69
2018-02-26T20:44:44.357Z,80.47
2018-02-26T20:47:12.285Z,80.40
2018-02-26T20:49:40.286Z,81.39
2018-02-26T20:52:08.228Z,81.90
2018-02-26T20:54:36.765Z,81.24
2018-02-26T20:57:04.826Z,81.79
2018-02-26T20:59:32.789Z,81.43
2018-02-26T21:02:00.746Z,82.60
2018-02-26T21:04:28.767Z,82.46
2018-02-26T21:06:56.838Z,81.87
2018-02-26T21:09:24.776Z,81.94
2018-02-26T21:11:52.784Z,81.36
2018-02-26T21:14:20.642Z,82.07
2018-02-26T21:16:48.586Z,82.08
2018-02-26T21:19:16.550Z,82.36
2018-02-26T21:21:44.453Z,82.72
2018-02-26T21:24:12.903Z,81.72
2018-02-26T21:26:40.853Z,90.51
2018-02-26T21:29:08.769Z,89.00
2018-02-26T21:31:36.737Z,87.00
2018-02-26T21:34:04.736Z,85.35
2018-02-26T21:36:32.703Z,85.71
2018-02-26T21:39:00.702Z,82.76
2018-02-26T21:41:28.647Z,82.39
2018-02-26T21:43:56.578Z,81.24
2018-02-26T21:46:24.508Z,77.46
2018-02-26T21:48:52.472Z,77.60
2018-02-26T21:51:20.413Z,78.73
2018-02-26T21:53:48.394Z,80.37
2018-02-26T21:56:16.433Z,81.20
2018-02-26T21:58:44.464Z,79.71
2018-02-26T22:01:12.382Z,78.60
2018-02-26T22:03:40.436Z,78.53
2018-02-26T22:06:08.404Z,78.44
2018-02-26T22:08:36.374Z,78.77
2018-02-26T22:11:04.347Z,79.07
2018-02-26T22:13:32.275Z,79.49
2018-02-26T22:16:00.303Z,79.88
2018-02-26T22:18:28.227Z,80.66
2018-02-26T22:20:56.401Z,80.43
2018-02-26T22:23:24.357Z,80.82
2018-02-26T22:25:52.277Z,80.62
2018-02-26T22:28:20.229Z,80.70
2018-02-26T22:30:48.173Z,80.63
2018-02-26T22:33:16.189Z,80.67
2018-02-26T22:35:44.197Z,80.63
2018-02-26T22:38:12.114Z,80.56
2018-02-26T22:40:40.073Z,80.35
2018-02-26T22:43:08.002Z,81.19
2018-02-26T22:45:35.951Z,81.52
2018-02-26T22:48:03.894Z,81.89
2018-02-26T22:50:31.875Z,82.13
2018-02-26T22:52:59.964Z,83.65
2018-02-26T22:55:27.979Z,82.89
2018-02-26T22:57:55.917Z,82.48
2018-02-26T23:00:23.878Z,82.22
2018-02-26T23:02:51.827Z,82.21
2018-02-26T23:05:19.826Z,82.52
2018-02-26T23:07:48.235Z,82.49
2018-02-26T23:10:16.183Z,82.94
2018-02-26T23:12:44.278Z,84.16
2018-02-26T23:15:12.247Z,84.36
2018-02-26T23:17:40.192Z,84.14
2018-02-26T23:20:08.246Z,83.40
2018-02-26T23:22:36.760Z,83.77
2018-02-26T23:25:04.722Z,82.90
2018-02-26T23:27:32.771Z,82.66
2018-02-26T23:30:01.210Z,83.23
2018-02-26T23:32:29.213Z,83.06
2018-02-26T23:34:57.203Z,83.74
2018-02-26T23:37:25.159Z,84.67
2018-02-26T23:39:53.145Z,84.24
2018-02-26T23:42:21.109Z,83.65
2018-02-26T23:44:49.064Z,82.48
2018-02-26T23:47:16.997Z,82.96
2018-02-26T23:49:44.946Z,83.33
2018-02-26T23:52:12.888Z,83.25
2018-02-26T23:54:48.818Z,83.31
2018-02-26T23:57:16.769Z,83.77
2018-02-26T23:59:44.731Z,84.00
